createdAt,value
2023-02-08T00:01:10.399Z,-0.79
2023-02-08T00:05:12.622Z,-0.82
2023-02-08T00:09:14.782Z,-0.94
2023-02-08T00:13:16.869Z,-0.83
2023-02-08T00:17:18.847Z,-0.69
2023-02-08T00:21:20.898Z,-0.69
2023-02-08T00:25:23.020Z,-0.60
2023-02-08T00:29:25.092Z,-0.48
2023-02-08T00:33:27.676Z,-0.46
2023-02-08T00:37:29.643Z,-0.52
2023-02-08T00:41:31.755Z,-0.57
2023-02-08T00:45:34.112Z,-0.64
2023-02-08T00:49:36.646Z,-0.72
2023-02-08T00:53:39.488Z,-0.83
2023-02-08T00:57:41.644Z,-1.01
2023-02-08T01:01:45.751Z,-0.96
2023-02-08T01:05:47.931Z,-1.08
2023-02-08T01:09:50.003Z,-1.27
2023-02-08T01:13:54.446Z,-1.29
2023-02-08T01:17:56.736Z,-1.42
2023-02-08T01:21:58.798Z,-1.48
2023-02-08T01:26:01.059Z,-1.49
2023-02-08T01:30:04.078Z,-1.50
2023-02-08T01:34:07.498Z,-1.62
2023-02-08T01:38:09.820Z,-1.71
2023-02-08T01:42:15.878Z,-1.62
2023-02-08T01:46:19.393Z,-1.63
2023-02-08T01:50:22.970Z,-1.78
2023-02-08T01:54:27.735Z,-1.86
2023-02-08T01:58:31.184Z,-1.88
2023-02-08T02:02:34.077Z,-1.87
2023-02-08T02:06:40.411Z,-1.85
2023-02-08T02:10:43.738Z,-1.86
2023-02-08T02:14:46.469Z,-1.87
2023-02-08T02:18:48.876Z,-1.93
2023-02-08T02:22:51.798Z,-1.98
2023-02-08T02:27:12.513Z,-1.94
2023-02-08T02:31:42.938Z,-2.09
2023-02-08T02:35:50.851Z,-2.18
2023-02-08T02:40:18.669Z,-2.19
2023-02-08T02:44:36.892Z,-2.06
2023-02-08T02:48:42.140Z,-2.01
2023-02-08T02:52:52.190Z,-2.19
2023-02-08T02:56:56.795Z,-1.85
2023-02-08T03:00:59.684Z,-1.61
2023-02-08T03:05:01.756Z,-1.45
2023-02-08T03:09:18.032Z,-1.21
2023-02-08T03:13:21.141Z,-0.93
2023-02-08T03:17:35.488Z,-1.19
2023-02-08T03:21:37.411Z,-1.33
2023-02-08T03:25:51.966Z,-1.42
2023-02-08T03:29:57.243Z,-1.56
2023-02-08T03:34:02.354Z,-1.70
2023-02-08T03:38:14.913Z,-1.83
2023-02-08T03:42:22.098Z,-1.88
2023-02-08T03:46:53.451Z,-1.84
2023-02-08T03:50:57.133Z,-1.95
2023-02-08T03:55:02.320Z,-1.99
2023-02-08T03:59:12.389Z,-2.21
2023-02-08T04:03:23.170Z,-2.18
2023-02-08T04:07:26.968Z,-2.15
2023-02-08T04:11:30.343Z,-2.20
2023-02-08T04:15:32.978Z,-2.18
2023-02-08T04:19:35.138Z,-2.31
2023-02-08T04:23:37.231Z,-2.39
2023-02-08T04:27:39.704Z,-2.46
2023-02-08T04:31:42.029Z,-2.26
2023-02-08T04:35:44.256Z,-2.36
2023-02-08T04:39:46.388Z,-2.21
2023-02-08T04:43:48.442Z,-2.24
2023-02-08T04:47:50.477Z,-2.13
2023-02-08T04:51:52.652Z,-2.34
2023-02-08T04:55:54.729Z,-2.36
2023-02-08T04:59:59.445Z,-2.34
2023-02-08T05:04:02.400Z,-2.35
2023-02-08T05:08:04.551Z,-2.37
2023-02-08T05:12:06.763Z,-2.62
2023-02-08T05:16:08.981Z,-2.53
2023-02-08T05:20:11.859Z,-2.52
2023-02-08T05:24:14.079Z,-2.54
2023-02-08T05:28:16.750Z,-2.57
2023-02-08T05:32:18.934Z,-2.42
2023-02-08T05:36:21.388Z,-2.46
2023-02-08T05:40:23.584Z,-2.44
2023-02-08T05:44:25.720Z,-2.40
2023-02-08T05:48:27.895Z,-2.37
2023-02-08T05:52:30.104Z,-2.45
2023-02-08T05:56:32.326Z,-2.47
2023-02-08T06:00:34.867Z,-2.54
2023-02-08T06:04:39.039Z,-2.72
2023-02-08T06:08:41.393Z,-2.68
2023-02-08T06:12:43.637Z,-2.67
2023-02-08T06:16:45.760Z,-2.73
2023-02-08T06:20:47.922Z,-2.74
2023-02-08T06:24:50.010Z,-2.65
2023-02-08T06:28:52.389Z,-2.25
2023-02-08T06:32:55.200Z,-2.34
2023-02-08T06:37:00.125Z,-2.43
2023-02-08T06:41:03.321Z,-2.28
2023-02-08T06:45:08.570Z,-2.17
2023-02-08T06:49:11.620Z,-2.22
2023-02-08T06:53:13.629Z,-2.23
2023-02-08T06:57:15.596Z,-2.20
2023-02-08T07:01:17.857Z,-2.17
2023-02-08T07:05:20.066Z,-2.15
2023-02-08T07:09:22.115Z,-2.16
2023-02-08T07:13:24.128Z,-1.99
2023-02-08T07:17:26.083Z,-1.44
2023-02-08T07:21:28.096Z,-1.30
2023-02-08T07:25:30.093Z,-0.90
2023-02-08T07:29:32.682Z,-0.60
2023-02-08T07:33:34.699Z,-0.49
2023-02-08T07:37:37.113Z,-0.14
2023-02-08T07:41:39.111Z,0.16
2023-02-08T07:45:41.192Z,0.55
2023-02-08T07:49:43.160Z,0.75
2023-02-08T07:53:45.117Z,1.32
2023-02-08T07:57:48.244Z,1.74
2023-02-08T08:01:50.469Z,1.97
2023-02-08T08:05:54.967Z,2.20
2023-02-08T08:09:57.078Z,2.33
2023-02-08T08:13:59.171Z,2.43
2023-02-08T08:18:01.305Z,2.58
2023-02-08T08:22:03.358Z,2.72
2023-02-08T08:26:16.674Z,2.82
2023-02-08T08:30:18.737Z,2.94
2023-02-08T08:34:22.558Z,3.01
2023-02-08T08:38:24.535Z,3.23
2023-02-08T08:42:26.794Z,3.33
2023-02-08T08:46:28.854Z,3.40
2023-02-08T08:50:30.887Z,3.47
2023-02-08T08:54:33.622Z,3.55
2023-02-08T08:58:48.225Z,3.69
2023-02-08T09:02:50.560Z,3.59
2023-02-08T09:06:53.440Z,3.68
2023-02-08T09:10:55.412Z,3.87
2023-02-08T09:14:57.410Z,3.97
2023-02-08T09:19:03.241Z,4.06
2023-02-08T09:23:05.394Z,4.11
2023-02-08T09:27:07.508Z,4.18
2023-02-08T09:31:15.338Z,4.32
2023-02-08T09:35:17.436Z,4.42
2023-02-08T09:39:21.625Z,4.54
2023-02-08T09:43:30.587Z,4.58
2023-02-08T09:47:59.209Z,4.55
2023-02-08T09:52:02.867Z,4.56
2023-02-08T09:56:06.161Z,4.67
2023-02-08T10:00:12.498Z,4.86
2023-02-08T10:04:14.551Z,5.01
2023-02-08T10:08:16.674Z,5.07
2023-02-08T10:12:37.010Z,5.19
2023-02-08T10:16:53.439Z,5.31
2023-02-08T10:21:21.830Z,5.32
2023-02-08T10:25:23.833Z,5.53
2023-02-08T10:29:32.092Z,5.66
2023-02-08T10:33:37.184Z,5.90
2023-02-08T10:37:41.788Z,5.86
2023-02-08T10:41:44.152Z,5.87
2023-02-08T10:46:06.495Z,5.95
2023-02-08T10:50:26.280Z,5.94
2023-02-08T10:54:29.160Z,5.86
2023-02-08T10:58:31.411Z,5.93
2023-02-08T11:02:34.426Z,5.81
2023-02-08T11:06:37.188Z,5.63
2023-02-08T11:10:39.731Z,5.57
2023-02-08T11:14:49.587Z,5.40
2023-02-08T11:18:59.430Z,5.46
2023-02-08T11:23:01.518Z,5.79
2023-02-08T11:27:03.525Z,5.64
2023-02-08T11:31:15.223Z,5.90
2023-02-08T11:35:29.376Z,5.88
2023-02-08T11:40:03.966Z,6.03
2023-02-08T11:44:07.313Z,6.09
2023-02-08T11:48:20.843Z,5.72
2023-02-08T11:52:25.600Z,6.08
2023-02-08T11:56:32.331Z,6.18
2023-02-08T12:00:35.738Z,5.97
2023-02-08T12:04:37.844Z,6.11
2023-02-08T12:09:02.876Z,6.00
2023-02-08T12:13:11.141Z,5.71
2023-02-08T12:17:22.414Z,5.93
2023-02-08T12:21:31.397Z,6.10
2023-02-08T12:25:42.795Z,6.04
2023-02-08T12:29:56.489Z,5.80
2023-02-08T12:33:58.431Z,5.91
2023-02-08T12:38:25.019Z,5.82
2023-02-08T12:42:30.049Z,5.73
2023-02-08T12:46:50.499Z,5.82
2023-02-08T12:51:08.599Z,6.09
2023-02-08T12:55:13.815Z,6.00
2023-02-08T12:59:36.378Z,5.75
2023-02-08T13:03:45.082Z,6.00
2023-02-08T13:07:49.349Z,6.04
2023-02-08T13:11:57.808Z,5.89
2023-02-08T13:16:10.654Z,6.04
2023-02-08T13:20:32.753Z,5.75
2023-02-08T13:24:36.887Z,5.42
2023-02-08T13:28:40.153Z,5.38
2023-02-08T13:32:45.103Z,5.24
2023-02-08T13:36:55.968Z,5.30
2023-02-08T13:41:05.955Z,5.07
2023-02-08T13:45:08.591Z,5.04
2023-02-08T13:49:30.576Z,5.01
2023-02-08T13:53:38.858Z,5.04
2023-02-08T13:57:51.631Z,4.98
2023-02-08T14:02:12.288Z,4.87
2023-02-08T14:06:20.350Z,4.90
2023-02-08T14:10:25.366Z,5.27
2023-02-08T14:14:27.554Z,4.82
2023-02-08T14:18:30.300Z,4.94
2023-02-08T14:22:51.995Z,5.09
2023-02-08T14:27:09.678Z,5.22
2023-02-08T14:31:12.722Z,4.66
2023-02-08T14:35:22.439Z,4.89
2023-02-08T14:39:27.870Z,5.15
2023-02-08T14:43:41.229Z,4.98
2023-02-08T14:47:43.256Z,4.82
2023-02-08T14:51:58.353Z,4.82
2023-02-08T14:56:07.932Z,4.75
2023-02-08T15:00:21.685Z,4.83
2023-02-08T15:04:23.863Z,4.42
2023-02-08T15:08:26.058Z,4.36
2023-02-08T15:12:34.173Z,3.90
2023-02-08T15:16:40.529Z,3.97
2023-02-08T15:20:44.336Z,3.64
2023-02-08T15:24:53.951Z,3.52
2023-02-08T15:28:56.092Z,3.64
2023-02-08T15:32:59.721Z,3.37
2023-02-08T15:37:01.763Z,3.45
2023-02-08T15:41:12.097Z,3.34
2023-02-08T15:45:24.212Z,3.23
2023-02-08T15:49:32.687Z,3.10
2023-02-08T15:53:35.916Z,3.06
2023-02-08T15:57:54.610Z,3.07
2023-02-08T16:01:57.877Z,2.89
2023-02-08T16:06:02.698Z,2.94
2023-02-08T16:10:06.251Z,2.92
2023-02-08T16:14:08.492Z,2.88
2023-02-08T16:18:29.479Z,2.85
2023-02-08T16:22:32.876Z,2.76
2023-02-08T16:26:50.447Z,2.71
2023-02-08T16:30:52.747Z,2.63
2023-02-08T16:34:55.256Z,2.63
2023-02-08T16:39:16.371Z,2.49
2023-02-08T16:43:18.402Z,2.39
2023-02-08T16:47:37.042Z,2.39
2023-02-08T16:51:43.307Z,2.36
2023-02-08T16:55:45.392Z,2.30
2023-02-08T16:59:47.676Z,2.24
2023-02-08T17:03:50.413Z,2.16
2023-02-08T17:07:52.655Z,2.21
2023-02-08T17:11:54.713Z,2.24
2023-02-08T17:15:58.495Z,2.20
2023-02-08T17:20:00.723Z,2.12
2023-02-08T17:24:03.261Z,2.12
2023-02-08T17:28:10.088Z,2.11
2023-02-08T17:32:12.048Z,2.07
2023-02-08T17:36:15.296Z,2.03
2023-02-08T17:40:17.915Z,1.98
2023-02-08T17:44:20.832Z,1.91
2023-02-08T17:48:22.752Z,1.91
2023-02-08T17:52:25.212Z,1.84
2023-02-08T17:56:28.694Z,1.86
2023-02-08T18:00:30.843Z,1.81
2023-02-08T18:04:33.124Z,1.67
2023-02-08T18:08:37.392Z,1.70
2023-02-08T18:12:39.775Z,1.55
2023-02-08T18:16:41.683Z,1.52
2023-02-08T18:20:44.995Z,1.50
2023-02-08T18:24:48.449Z,1.42
2023-02-08T18:28:50.680Z,1.44
2023-02-08T18:32:52.664Z,1.41
2023-02-08T18:36:55.603Z,1.41
2023-02-08T18:40:57.799Z,1.35
2023-02-08T18:45:01.289Z,1.41
2023-02-08T18:49:03.559Z,1.44
2023-02-08T18:53:05.642Z,1.52
2023-02-08T18:57:09.858Z,1.61
2023-02-08T19:01:13.382Z,1.54
2023-02-08T19:05:15.674Z,1.61
2023-02-08T19:09:17.788Z,1.56
2023-02-08T19:13:19.946Z,1.56
2023-02-08T19:17:22.438Z,1.55
2023-02-08T19:21:24.743Z,1.56
2023-02-08T19:25:26.987Z,1.56
2023-02-08T19:29:29.135Z,1.53
2023-02-08T19:33:31.589Z,1.52
2023-02-08T19:37:33.958Z,1.50
2023-02-08T19:41:38.048Z,1.42
2023-02-08T19:45:44.793Z,1.40
2023-02-08T19:49:47.563Z,1.35
2023-02-08T19:53:49.700Z,1.43
2023-02-08T19:57:53.258Z,1.37
2023-02-08T20:01:55.735Z,1.28
2023-02-08T20:05:58.558Z,1.28
2023-02-08T20:10:00.829Z,1.24
2023-02-08T20:14:03.429Z,1.29
2023-02-08T20:18:06.561Z,1.01
2023-02-08T20:22:39.833Z,0.80
2023-02-08T20:27:11.598Z,0.62
2023-02-08T20:31:25.183Z,0.44
2023-02-08T20:35:32.510Z,0.43
2023-02-08T20:39:35.180Z,0.43
2023-02-08T20:43:37.928Z,0.36
2023-02-08T20:47:51.500Z,0.47
2023-02-08T20:51:57.570Z,0.33
2023-02-08T20:55:59.687Z,0.31
2023-02-08T21:00:06.049Z,0.21
2023-02-08T21:04:08.204Z,0.13
2023-02-08T21:08:13.047Z,0.05
2023-02-08T21:12:15.767Z,-0.01
2023-02-08T21:16:18.389Z,0.26
2023-02-08T21:20:20.639Z,0.24
2023-02-08T21:24:26.025Z,0.21
2023-02-08T21:28:28.420Z,0.40
2023-02-08T21:32:31.038Z,0.55
2023-02-08T21:36:33.879Z,0.67
2023-02-08T21:40:36.327Z,0.70
2023-02-08T21:44:38.485Z,0.61
2023-02-08T21:48:59.911Z,0.60
2023-02-08T21:53:20.858Z,0.45
2023-02-08T21:57:30.473Z,0.22
2023-02-08T22:01:32.538Z,0.13
2023-02-08T22:05:35.066Z,0.01
2023-02-08T22:09:38.610Z,-0.12
2023-02-08T22:13:43.217Z,-0.20
2023-02-08T22:17:45.362Z,-0.32
2023-02-08T22:21:47.447Z,-0.24
2023-02-08T22:25:59.227Z,-0.12
2023-02-08T22:30:01.249Z,-0.06
2023-02-08T22:34:03.833Z,-0.09
2023-02-08T22:38:05.963Z,-0.11
2023-02-08T22:42:09.188Z,-0.22
2023-02-08T22:46:11.309Z,-0.27
2023-02-08T22:50:13.441Z,-0.22
2023-02-08T22:54:15.498Z,-0.31
2023-02-08T22:58:18.138Z,-0.33
2023-02-08T23:02:20.236Z,-0.31
2023-02-08T23:06:22.281Z,-0.15
2023-02-08T23:10:24.508Z,-0.10
2023-02-08T23:14:28.084Z,-0.11
2023-02-08T23:18:30.429Z,-0.05
2023-02-08T23:22:36.138Z,0.01
2023-02-08T23:26:38.375Z,0.06
2023-02-08T23:30:41.172Z,0.09
2023-02-08T23:34:43.310Z,0.19
2023-02-08T23:38:46.025Z,0.19
2023-02-08T23:42:48.276Z,0.13
2023-02-08T23:46:50.424Z,-0.07
2023-02-08T23:51:00.272Z,-0.14
2023-02-08T23:55:03.432Z,-0.32
2023-02-08T23:59:08.354Z,-0.32
